createdAt,value
2017-12-03T00:00:09.678Z,-0.56
2017-12-03T00:01:12.691Z,-0.83
2017-12-03T00:02:15.669Z,-0.74
2017-12-03T00:03:18.743Z,-0.99
2017-12-03T00:04:22.988Z,-1.02
2017-12-03T00:05:25.935Z,-0.97
2017-12-03T00:06:28.801Z,-0.86
2017-12-03T00:07:31.681Z,-0.93
2017-12-03T00:08:34.627Z,-0.97
2017-12-03T00:09:37.501Z,-0.83
2017-12-03T00:10:40.820Z,-0.98
2017-12-03T00:11:43.719Z,-1.10
2017-12-03T00:12:46.643Z,-0.96
2017-12-03T00:13:49.523Z,-1.00
2017-12-03T00:14:52.401Z,-0.93
2017-12-03T00:15:55.356Z,-0.94
2017-12-03T00:16:58.740Z,-1.05
2017-12-03T00:18:01.667Z,-1.18
2017-12-03T00:19:04.590Z,-1.07
2017-12-03T00:20:07.527Z,-1.10
2017-12-03T00:21:10.444Z,-1.16
2017-12-03T00:22:13.336Z,-1.28
2017-12-03T00:23:16.737Z,-1.25
2017-12-03T00:24:19.641Z,-1.20
2017-12-03T00:25:22.577Z,-1.15
2017-12-03T00:26:25.521Z,-1.21
2017-12-03T00:27:28.535Z,-1.16
2017-12-03T00:28:31.477Z,-1.22
2017-12-03T00:29:34.803Z,-1.07
2017-12-03T00:30:37.764Z,-1.17
2017-12-03T00:31:40.703Z,-1.16
2017-12-03T00:32:43.608Z,-1.25
2017-12-03T00:33:46.516Z,-1.22
2017-12-03T00:34:49.464Z,-1.04
2017-12-03T00:35:52.859Z,-0.94
2017-12-03T00:36:55.789Z,-0.85
2017-12-03T00:37:58.688Z,-1.08
2017-12-03T00:39:01.649Z,-1.12
2017-12-03T00:40:04.583Z,-1.00
2017-12-03T00:41:07.520Z,-1.13
2017-12-03T00:42:10.872Z,-1.03
2017-12-03T00:43:13.808Z,-0.91
2017-12-03T00:44:16.798Z,-1.05
2017-12-03T00:45:19.693Z,-1.02
2017-12-03T00:46:22.639Z,-0.98
2017-12-03T00:47:25.583Z,-0.88
2017-12-03T00:48:28.922Z,-1.11
2017-12-03T00:49:31.855Z,-1.24
2017-12-03T00:50:34.752Z,-1.27
2017-12-03T00:51:37.690Z,-1.04
2017-12-03T00:52:40.629Z,-1.07
2017-12-03T00:53:43.546Z,-1.12
2017-12-03T00:54:46.795Z,-0.97
2017-12-03T00:55:49.664Z,-1.13
2017-12-03T00:56:52.644Z,-1.06
2017-12-03T00:57:55.610Z,-0.82
2017-12-03T00:58:58.538Z,-0.83
2017-12-03T01:00:01.472Z,-0.85
2017-12-03T01:01:04.848Z,-1.02
2017-12-03T01:02:07.770Z,-1.12
2017-12-03T01:03:10.705Z,-0.86
2017-12-03T01:04:13.611Z,-1.00
2017-12-03T01:05:16.570Z,-1.07
2017-12-03T01:06:19.459Z,-0.83
2017-12-03T01:07:22.732Z,-0.80
2017-12-03T01:08:25.704Z,-0.98
2017-12-03T01:09:28.718Z,-0.97
2017-12-03T01:10:31.736Z,-1.12
2017-12-03T01:11:34.737Z,-1.09
2017-12-03T01:12:37.681Z,-0.96
2017-12-03T01:13:41.534Z,-1.10
2017-12-03T01:14:44.453Z,-1.10
2017-12-03T01:15:47.463Z,-0.87
2017-12-03T01:16:50.328Z,-0.97
2017-12-03T01:17:53.365Z,-1.00
2017-12-03T01:18:56.259Z,-0.98
2017-12-03T01:19:59.583Z,-0.87
2017-12-03T01:21:02.426Z,-0.97
2017-12-03T01:22:05.548Z,-1.04
2017-12-03T01:23:08.414Z,-1.11
2017-12-03T01:24:11.289Z,-1.11
2017-12-03T01:25:14.260Z,-0.99
2017-12-03T01:26:17.582Z,-1.14
2017-12-03T01:27:20.389Z,-1.09
2017-12-03T01:28:23.389Z,-1.20
2017-12-03T01:29:26.303Z,-1.26
2017-12-03T01:30:29.184Z,-1.34
2017-12-03T01:31:32.084Z,-1.26
2017-12-03T01:32:35.392Z,-1.28
2017-12-03T01:33:38.307Z,-1.22
2017-12-03T01:34:41.269Z,-1.15
2017-12-03T01:35:44.140Z,-1.15
2017-12-03T01:36:47.062Z,-1.30
2017-12-03T01:37:50.018Z,-1.09
2017-12-03T01:38:53.396Z,-1.15
2017-12-03T01:39:56.323Z,-1.32
2017-12-03T01:40:59.219Z,-1.18
2017-12-03T01:42:02.124Z,-1.22
2017-12-03T01:43:05.011Z,-1.34
2017-12-03T01:44:07.853Z,-1.16
2017-12-03T01:45:10.993Z,-1.28
2017-12-03T01:46:13.856Z,-1.23
2017-12-03T01:47:16.706Z,-1.16
2017-12-03T01:48:19.598Z,-1.26
2017-12-03T01:49:22.573Z,-1.00
2017-12-03T01:50:25.455Z,-1.11
2017-12-03T01:51:28.745Z,-1.12
2017-12-03T01:52:31.624Z,-1.02
2017-12-03T01:53:34.788Z,-1.26
2017-12-03T01:54:37.731Z,-1.07
2017-12-03T01:55:40.709Z,-1.12
2017-12-03T01:56:43.655Z,-0.99
2017-12-03T01:57:46.924Z,-0.77
2017-12-03T01:58:49.905Z,-0.71
2017-12-03T01:59:52.711Z,-0.95
2017-12-03T02:00:55.521Z,-1.03
2017-12-03T02:01:58.382Z,-1.23
2017-12-03T02:03:01.302Z,-1.22
2017-12-03T02:04:04.565Z,-0.93
2017-12-03T02:05:07.460Z,-1.01
2017-12-03T02:06:10.521Z,-0.98
2017-12-03T02:07:13.414Z,-1.02
2017-12-03T02:08:16.431Z,-1.08
2017-12-03T02:09:19.352Z,-1.17
2017-12-03T02:10:22.706Z,-1.02
2017-12-03T02:11:25.801Z,-0.99
2017-12-03T02:12:28.701Z,-0.94
2017-12-03T02:13:31.591Z,-1.03
2017-12-03T02:14:34.467Z,-0.96
2017-12-03T02:15:37.382Z,-1.03
2017-12-03T02:16:41.067Z,-0.92
2017-12-03T02:17:43.984Z,-0.94
2017-12-03T02:18:46.957Z,-1.09
2017-12-03T02:19:49.847Z,-0.98
2017-12-03T02:20:52.925Z,-1.06
2017-12-03T02:21:55.834Z,-1.02
2017-12-03T02:22:59.224Z,-1.11
2017-12-03T02:24:02.177Z,-1.16
2017-12-03T02:25:05.081Z,-1.12
2017-12-03T02:26:08.062Z,-1.10
2017-12-03T02:27:11.027Z,-1.09
2017-12-03T02:28:14.031Z,-1.03
2017-12-03T02:29:17.269Z,-1.16
2017-12-03T02:30:20.291Z,-1.02
2017-12-03T02:31:23.332Z,-1.14
2017-12-03T02:32:26.325Z,-1.17
2017-12-03T02:33:29.453Z,-1.15
2017-12-03T02:34:32.328Z,-1.40
2017-12-03T02:35:35.729Z,-1.10
2017-12-03T02:36:38.645Z,-1.09
2017-12-03T02:37:41.613Z,-1.13
2017-12-03T02:38:44.531Z,-1.39
2017-12-03T02:39:47.453Z,-1.38
2017-12-03T02:40:50.391Z,-1.41
2017-12-03T02:41:53.663Z,-1.34
2017-12-03T02:42:56.514Z,-1.39
2017-12-03T02:43:59.357Z,-1.38
2017-12-03T02:45:02.283Z,-1.30
2017-12-03T02:46:05.195Z,-1.39
2017-12-03T02:47:08.169Z,-1.33
2017-12-03T02:48:11.435Z,-1.30
2017-12-03T02:49:14.358Z,-1.45
2017-12-03T02:50:17.303Z,-1.39
2017-12-03T02:51:20.223Z,-1.46
2017-12-03T02:52:23.178Z,-1.50
2017-12-03T02:53:26.109Z,-1.39
2017-12-03T02:54:29.523Z,-1.36
2017-12-03T02:55:32.562Z,-1.20
2017-12-03T02:56:35.471Z,-1.19
2017-12-03T02:57:38.414Z,-1.33
2017-12-03T02:58:41.325Z,-1.26
2017-12-03T02:59:44.267Z,-1.35
2017-12-03T03:00:47.621Z,-1.42
2017-12-03T03:01:50.532Z,-1.36
2017-12-03T03:02:53.443Z,-1.31
2017-12-03T03:03:56.366Z,-1.50
2017-12-03T03:04:59.298Z,-1.50
2017-12-03T03:06:02.241Z,-1.47
2017-12-03T03:07:05.631Z,-1.48
2017-12-03T03:08:08.561Z,-1.36
2017-12-03T03:09:11.474Z,-1.37
2017-12-03T03:10:14.393Z,-1.42
2017-12-03T03:11:17.304Z,-1.37
2017-12-03T03:12:20.233Z,-1.42
2017-12-03T03:13:23.476Z,-1.35
2017-12-03T03:14:26.512Z,-1.27
2017-12-03T03:15:29.374Z,-1.38
2017-12-03T03:16:32.297Z,-1.43
2017-12-03T03:17:35.130Z,-1.50
2017-12-03T03:18:37.986Z,-1.50
2017-12-03T03:19:41.223Z,-1.44
2017-12-03T03:20:44.148Z,-1.54
2017-12-03T03:21:47.131Z,-1.47
2017-12-03T03:22:50.030Z,-1.52
2017-12-03T03:23:52.976Z,-1.36
2017-12-03T03:24:55.946Z,-1.50
2017-12-03T03:25:59.339Z,-1.48
2017-12-03T03:27:02.260Z,-1.45
2017-12-03T03:28:05.198Z,-1.51
2017-12-03T03:29:08.161Z,-1.35
2017-12-03T03:30:11.093Z,-1.44
2017-12-03T03:31:14.002Z,-1.57
2017-12-03T03:32:17.317Z,-1.49
2017-12-03T03:33:20.259Z,-1.44
2017-12-03T03:34:23.153Z,-1.44
2017-12-03T03:35:26.083Z,-1.64
2017-12-03T03:36:29.030Z,-1.68
2017-12-03T03:37:32.342Z,-1.68
2017-12-03T03:38:35.260Z,-1.67
2017-12-03T03:39:38.195Z,-1.64
2017-12-03T03:40:41.130Z,-1.60
2017-12-03T03:41:44.026Z,-1.63
2017-12-03T03:42:46.995Z,-1.65
2017-12-03T03:43:50.299Z,-1.56
2017-12-03T03:44:53.141Z,-1.59
2017-12-03T03:45:56.034Z,-1.63
2017-12-03T03:46:58.981Z,-1.73
2017-12-03T03:48:01.930Z,-1.66
2017-12-03T03:49:04.932Z,-1.70
2017-12-03T03:50:08.235Z,-1.69
2017-12-03T03:51:11.150Z,-1.61
2017-12-03T03:52:14.179Z,-1.67
2017-12-03T03:53:17.073Z,-1.73
2017-12-03T03:54:20.000Z,-1.53
2017-12-03T03:55:22.918Z,-1.48
2017-12-03T03:56:26.287Z,-1.62
2017-12-03T03:57:29.268Z,-1.45
2017-12-03T03:58:32.210Z,-1.56
2017-12-03T03:59:35.204Z,-1.46
2017-12-03T04:00:38.157Z,-1.59
2017-12-03T04:01:41.177Z,-1.43
2017-12-03T04:02:44.576Z,-1.55
2017-12-03T04:03:47.585Z,-1.62
2017-12-03T04:04:50.493Z,-1.65
2017-12-03T04:05:53.412Z,-1.57
2017-12-03T04:06:56.360Z,-1.67
2017-12-03T04:07:59.308Z,-1.72
2017-12-03T04:09:02.629Z,-1.58
2017-12-03T04:10:05.569Z,-1.57
2017-12-03T04:11:08.547Z,-1.61
2017-12-03T04:12:11.557Z,-1.41
2017-12-03T04:13:14.626Z,-1.70
2017-12-03T04:14:17.620Z,-1.56
2017-12-03T04:15:20.943Z,-1.49
2017-12-03T04:16:23.984Z,-1.54
2017-12-03T04:17:27.069Z,-1.61
2017-12-03T04:18:30.013Z,-1.55
2017-12-03T04:19:32.967Z,-1.69
2017-12-03T04:20:35.890Z,-1.74
2017-12-03T04:21:39.428Z,-1.74
2017-12-03T04:22:42.552Z,-1.69
2017-12-03T04:23:45.506Z,-1.63
2017-12-03T04:24:48.442Z,-1.49
2017-12-03T04:25:51.386Z,-1.37
2017-12-03T04:26:54.431Z,-1.45
2017-12-03T04:27:57.831Z,-1.48
2017-12-03T04:29:00.853Z,-1.34
2017-12-03T04:30:03.947Z,-1.46
2017-12-03T04:31:06.875Z,-1.28
2017-12-03T04:32:09.929Z,-1.40
2017-12-03T04:33:12.873Z,-1.20
2017-12-03T04:34:16.282Z,-1.44
2017-12-03T04:35:19.260Z,-1.37
2017-12-03T04:36:22.197Z,-1.40
2017-12-03T04:37:25.237Z,-1.53
2017-12-03T04:38:28.209Z,-1.64
2017-12-03T04:39:31.518Z,-1.53
2017-12-03T04:40:35.224Z,-1.59
2017-12-03T04:41:38.150Z,-1.54
2017-12-03T04:42:41.151Z,-1.56
2017-12-03T04:43:44.080Z,-1.60
2017-12-03T04:44:47.184Z,-1.42
2017-12-03T04:45:50.136Z,-1.51
2017-12-03T04:46:53.493Z,-1.48
2017-12-03T04:47:56.469Z,-1.41
2017-12-03T04:48:59.669Z,-1.29
2017-12-03T04:50:02.674Z,-1.42
2017-12-03T04:51:05.745Z,-1.48
2017-12-03T04:52:08.713Z,-1.39
2017-12-03T04:53:12.102Z,-1.44
2017-12-03T04:54:15.085Z,-1.42
2017-12-03T04:55:18.070Z,-1.38
2017-12-03T04:56:20.997Z,-1.44
2017-12-03T04:57:24.059Z,-1.50
2017-12-03T04:58:26.968Z,-1.51
2017-12-03T04:59:30.620Z,-1.46
2017-12-03T05:00:33.549Z,-1.44
2017-12-03T05:01:36.511Z,-1.62
2017-12-03T05:02:39.495Z,-1.66
2017-12-03T05:03:42.298Z,-1.48
2017-12-03T05:04:45.131Z,-1.46
2017-12-03T05:05:48.397Z,-1.52
2017-12-03T05:06:51.314Z,-1.44
2017-12-03T05:07:54.261Z,-1.47
2017-12-03T05:08:57.388Z,-1.55
2017-12-03T05:10:00.315Z,-1.42
2017-12-03T05:11:03.256Z,-1.48
2017-12-03T05:12:06.778Z,-1.35
2017-12-03T05:13:09.740Z,-1.44
2017-12-03T05:14:12.757Z,-1.30
2017-12-03T05:15:15.722Z,-1.60
2017-12-03T05:16:18.704Z,-1.66
2017-12-03T05:17:21.627Z,-1.66
2017-12-03T05:18:24.977Z,-1.54
2017-12-03T05:19:27.963Z,-1.47
2017-12-03T05:20:30.899Z,-1.46
2017-12-03T05:21:33.880Z,-1.43
2017-12-03T05:22:36.836Z,-1.38
2017-12-03T05:23:39.782Z,-1.32
2017-12-03T05:24:43.212Z,-1.46
2017-12-03T05:25:46.270Z,-1.46
2017-12-03T05:26:49.206Z,-1.53
2017-12-03T05:27:52.144Z,-1.55
2017-12-03T05:28:55.117Z,-1.64
2017-12-03T05:29:58.114Z,-1.59
2017-12-03T05:31:01.478Z,-1.63
2017-12-03T05:32:04.379Z,-1.62
2017-12-03T05:33:07.326Z,-1.61
2017-12-03T05:34:10.164Z,-1.68
2017-12-03T05:35:13.137Z,-1.63
2017-12-03T05:36:16.058Z,-1.57
2017-12-03T05:37:19.533Z,-1.51
2017-12-03T05:38:22.511Z,-1.70
2017-12-03T05:39:25.447Z,-1.70
2017-12-03T05:40:28.382Z,-1.69
2017-12-03T05:41:31.355Z,-1.67
2017-12-03T05:42:34.298Z,-1.54
2017-12-03T05:43:37.542Z,-1.54
2017-12-03T05:44:40.473Z,-1.69
2017-12-03T05:45:43.434Z,-1.65
2017-12-03T05:46:46.368Z,-1.61
2017-12-03T05:47:49.375Z,-1.63
2017-12-03T05:48:52.314Z,-1.60
2017-12-03T05:49:55.653Z,-1.68
2017-12-03T05:50:58.594Z,-1.51
2017-12-03T05:52:01.532Z,-1.60
2017-12-03T05:53:04.478Z,-1.62
2017-12-03T05:54:07.450Z,-1.61
2017-12-03T05:55:10.439Z,-1.63
2017-12-03T05:56:13.709Z,-1.57
2017-12-03T05:57:16.720Z,-1.57
2017-12-03T05:58:19.727Z,-1.53
2017-12-03T05:59:22.751Z,-1.44
2017-12-03T06:00:25.721Z,-1.41
2017-12-03T06:01:28.670Z,-1.51
2017-12-03T06:02:31.960Z,-1.57
2017-12-03T06:03:35.110Z,-1.61
2017-12-03T06:04:38.319Z,-1.54
2017-12-03T06:05:41.284Z,-1.44
2017-12-03T06:06:44.267Z,-1.37
2017-12-03T06:07:47.254Z,-1.52
2017-12-03T06:08:50.624Z,-1.47
2017-12-03T06:09:53.553Z,-1.66
2017-12-03T06:10:56.414Z,-1.46
2017-12-03T06:11:59.352Z,-1.57
2017-12-03T06:13:02.264Z,-1.62
2017-12-03T06:14:05.122Z,-1.55
2017-12-03T06:15:08.480Z,-1.45
2017-12-03T06:16:11.414Z,-1.49
2017-12-03T06:17:14.392Z,-1.53
2017-12-03T06:18:17.326Z,-1.56
2017-12-03T06:19:20.310Z,-1.51
2017-12-03T06:20:23.329Z,-1.56
2017-12-03T06:21:26.915Z,-1.57
2017-12-03T06:22:30.132Z,-1.49
2017-12-03T06:23:33.057Z,-1.46
2017-12-03T06:24:36.054Z,-1.54
2017-12-03T06:25:39.104Z,-1.53
2017-12-03T06:26:42.025Z,-1.44
2017-12-03T06:27:45.430Z,-1.53
2017-12-03T06:28:48.380Z,-1.56
2017-12-03T06:29:51.302Z,-1.58
2017-12-03T06:30:54.220Z,-1.62
2017-12-03T06:31:57.189Z,-1.51
2017-12-03T06:33:00.094Z,-1.49
2017-12-03T06:34:03.433Z,-1.58
2017-12-03T06:35:06.360Z,-1.61
2017-12-03T06:36:09.336Z,-1.51
2017-12-03T06:37:14.750Z,-1.56
2017-12-03T06:38:17.976Z,-1.63
2017-12-03T06:39:20.913Z,-1.47
2017-12-03T06:40:24.607Z,-1.58
2017-12-03T06:41:27.648Z,-1.47
2017-12-03T06:42:30.602Z,-1.54
2017-12-03T06:43:33.627Z,-1.54
2017-12-03T06:44:36.695Z,-1.62
2017-12-03T06:45:39.704Z,-1.49
2017-12-03T06:46:42.717Z,-1.58
2017-12-03T06:47:45.709Z,-1.55
2017-12-03T06:48:48.678Z,-1.51
2017-12-03T06:49:51.670Z,-1.64
2017-12-03T06:50:54.642Z,-1.69
2017-12-03T06:51:57.621Z,-1.55
2017-12-03T06:53:00.927Z,-1.65
2017-12-03T06:54:03.841Z,-1.50
2017-12-03T06:55:06.790Z,-1.59
2017-12-03T06:56:09.793Z,-1.61
2017-12-03T06:57:12.745Z,-1.63
2017-12-03T06:58:15.701Z,-1.63
2017-12-03T06:59:18.954Z,-1.57
2017-12-03T07:00:22.012Z,-1.55
2017-12-03T07:01:24.939Z,-1.53
2017-12-03T07:02:27.903Z,-1.62
2017-12-03T07:03:30.913Z,-1.56
2017-12-03T07:04:33.838Z,-1.66
2017-12-03T07:05:37.255Z,-1.63
2017-12-03T07:06:40.212Z,-1.67
2017-12-03T07:07:43.277Z,-1.60
2017-12-03T07:08:46.197Z,-1.62
2017-12-03T07:09:49.199Z,-1.64
2017-12-03T07:10:52.228Z,-1.54
2017-12-03T07:11:55.538Z,-1.57
2017-12-03T07:12:58.495Z,-1.52
2017-12-03T07:14:01.440Z,-1.49
2017-12-03T07:15:04.393Z,-1.59
2017-12-03T07:16:07.348Z,-1.52
2017-12-03T07:17:10.346Z,-1.61
2017-12-03T07:18:13.805Z,-1.57
2017-12-03T07:19:16.836Z,-1.58
2017-12-03T07:20:19.862Z,-1.44
2017-12-03T07:21:22.904Z,-1.54
2017-12-03T07:22:25.869Z,-1.53
2017-12-03T07:23:28.863Z,-1.47
2017-12-03T07:24:32.382Z,-1.55
2017-12-03T07:25:35.428Z,-1.65
2017-12-03T07:26:38.363Z,-1.47
2017-12-03T07:27:41.361Z,-1.51
2017-12-03T07:28:44.483Z,-1.57
2017-12-03T07:29:47.444Z,-1.57
2017-12-03T07:30:50.751Z,-1.50
2017-12-03T07:31:53.759Z,-1.59
2017-12-03T07:32:56.710Z,-1.52
2017-12-03T07:33:59.757Z,-1.54
2017-12-03T07:35:02.899Z,-1.54
2017-12-03T07:36:05.818Z,-1.45
2017-12-03T07:37:08.688Z,-1.53
2017-12-03T07:38:14.743Z,-1.62
2017-12-03T07:39:17.990Z,-1.61
2017-12-03T07:40:21.186Z,-1.55
2017-12-03T07:41:24.491Z,-1.48
2017-12-03T07:42:28.416Z,-1.65
2017-12-03T07:43:31.371Z,-1.58
2017-12-03T07:44:34.519Z,-1.55
2017-12-03T07:45:37.492Z,-1.52
2017-12-03T07:46:40.488Z,-1.57
2017-12-03T07:47:43.469Z,-1.49
2017-12-03T07:48:46.673Z,-1.57
2017-12-03T07:49:49.634Z,-1.52
2017-12-03T07:50:52.588Z,-1.58
2017-12-03T07:51:55.653Z,-1.42
2017-12-03T07:52:59.144Z,-1.44
2017-12-03T07:54:02.515Z,-1.47
2017-12-03T07:55:05.830Z,-1.66
2017-12-03T07:56:08.770Z,-1.50
2017-12-03T07:57:11.730Z,-1.49
2017-12-03T07:58:14.720Z,-1.59
2017-12-03T07:59:17.669Z,-1.53
2017-12-03T08:00:20.685Z,-1.45
2017-12-03T08:01:23.938Z,-1.58
2017-12-03T08:02:26.954Z,-1.48
2017-12-03T08:03:29.906Z,-1.41
2017-12-03T08:04:32.859Z,-1.40
2017-12-03T08:05:35.880Z,-1.42
2017-12-03T08:06:38.885Z,-1.59
2017-12-03T08:07:42.101Z,-1.54
2017-12-03T08:08:45.164Z,-1.37
2017-12-03T08:09:48.194Z,-1.43
2017-12-03T08:10:51.149Z,-1.41
2017-12-03T08:11:54.089Z,-1.45
2017-12-03T08:12:57.031Z,-1.40
2017-12-03T08:14:00.361Z,-1.33
2017-12-03T08:15:03.286Z,-1.49
2017-12-03T08:16:06.304Z,-1.45
2017-12-03T08:17:09.290Z,-1.47
2017-12-03T08:18:14.692Z,-1.56
2017-12-03T08:19:17.650Z,-1.37
2017-12-03T08:20:20.897Z,-1.33
2017-12-03T08:21:23.858Z,-1.27
2017-12-03T08:22:26.795Z,-1.34
2017-12-03T08:23:29.755Z,-1.32
2017-12-03T08:24:32.766Z,-1.32
2017-12-03T08:25:35.684Z,-1.39
2017-12-03T08:26:39.017Z,-1.31
2017-12-03T08:27:41.967Z,-1.25
2017-12-03T08:28:45.107Z,-1.37
2017-12-03T08:29:48.036Z,-1.33
2017-12-03T08:30:50.935Z,-1.33
2017-12-03T08:31:53.784Z,-1.27
2017-12-03T08:32:57.096Z,-1.44
2017-12-03T08:34:00.073Z,-1.47
2017-12-03T08:35:03.014Z,-1.34
2017-12-03T08:36:06.034Z,-1.30
2017-12-03T08:37:08.980Z,-1.49
2017-12-03T08:38:11.934Z,-1.49
2017-12-03T08:39:15.164Z,-1.30
2017-12-03T08:40:18.113Z,-1.21
2017-12-03T08:41:21.035Z,-1.25
2017-12-03T08:42:24.038Z,-1.08
2017-12-03T08:43:26.992Z,-1.30
2017-12-03T08:44:30.154Z,-1.43
2017-12-03T08:45:33.883Z,-1.26
2017-12-03T08:46:36.887Z,-1.30
2017-12-03T08:47:40.152Z,-1.05
2017-12-03T08:48:43.290Z,-1.20
2017-12-03T08:49:46.339Z,-1.08
2017-12-03T08:50:50.872Z,-1.36
2017-12-03T08:51:54.073Z,-1.23
2017-12-03T08:52:57.146Z,-1.29
2017-12-03T08:54:00.140Z,-1.21
2017-12-03T08:55:03.073Z,-1.28
2017-12-03T08:56:06.745Z,-1.19
2017-12-03T08:57:12.591Z,-1.24
2017-12-03T08:58:15.915Z,-1.38
2017-12-03T08:59:18.802Z,-1.32
2017-12-03T09:00:21.846Z,-1.30
2017-12-03T09:01:24.793Z,-1.13
2017-12-03T09:02:27.747Z,-1.41
2017-12-03T09:03:30.711Z,-1.46
2017-12-03T09:04:33.957Z,-1.43
2017-12-03T09:05:36.937Z,-1.33
2017-12-03T09:06:40.964Z,-1.25
2017-12-03T09:07:43.964Z,-1.23
2017-12-03T09:08:46.964Z,-1.28
2017-12-03T09:09:49.902Z,-1.35
2017-12-03T09:10:53.117Z,-1.42
2017-12-03T09:11:56.201Z,-1.48
2017-12-03T09:12:59.171Z,-1.46
2017-12-03T09:14:02.164Z,-1.22
2017-12-03T09:15:05.078Z,-1.25
2017-12-03T09:16:08.117Z,-1.40
2017-12-03T09:17:11.314Z,-1.30
2017-12-03T09:18:15.886Z,-1.34
2017-12-03T09:19:18.851Z,-1.32
2017-12-03T09:20:21.776Z,-1.17
2017-12-03T09:21:24.766Z,-1.30
2017-12-03T09:22:27.758Z,-1.22
2017-12-03T09:23:31.052Z,-1.34
2017-12-03T09:24:34.128Z,-1.24
2017-12-03T09:25:37.087Z,-1.07
2017-12-03T09:26:40.042Z,-1.27
2017-12-03T09:27:43.098Z,-1.04
2017-12-03T09:28:46.034Z,-1.15
2017-12-03T09:29:49.140Z,-1.24
2017-12-03T09:30:52.237Z,-1.16
2017-12-03T09:31:55.119Z,-1.12
2017-12-03T09:32:58.005Z,-1.17
2017-12-03T09:34:00.951Z,-1.29
2017-12-03T09:35:04.074Z,-1.02
2017-12-03T09:36:07.409Z,-1.18
2017-12-03T09:37:10.293Z,-1.20
2017-12-03T09:38:13.165Z,-1.21
2017-12-03T09:39:16.184Z,-0.98
2017-12-03T09:40:19.150Z,-1.01
2017-12-03T09:41:22.086Z,-1.07
2017-12-03T09:42:25.522Z,-1.18
2017-12-03T09:43:28.733Z,-1.12
2017-12-03T09:44:31.630Z,-1.22
2017-12-03T09:45:34.553Z,-1.09
2017-12-03T09:46:37.491Z,-1.09
2017-12-03T09:47:40.462Z,-0.97
2017-12-03T09:48:43.744Z,-1.12
2017-12-03T09:49:46.762Z,-1.13
2017-12-03T09:50:49.754Z,-0.97
2017-12-03T09:51:52.719Z,-1.06
2017-12-03T09:52:55.676Z,-1.05
2017-12-03T09:53:59.415Z,-0.99
2017-12-03T09:55:02.643Z,-0.98
2017-12-03T09:56:05.649Z,-1.15
2017-12-03T09:57:08.660Z,-1.07
2017-12-03T09:58:11.707Z,-0.97
2017-12-03T09:59:14.668Z,-1.03
2017-12-03T10:00:17.730Z,-0.85
2017-12-03T10:01:21.031Z,-1.17
2017-12-03T10:02:24.041Z,-1.08
2017-12-03T10:03:27.059Z,-1.04
2017-12-03T10:04:30.072Z,-1.14
2017-12-03T10:05:33.043Z,-0.91
2017-12-03T10:06:36.032Z,-0.81
2017-12-03T10:07:39.224Z,-0.90
2017-12-03T10:08:42.270Z,-1.01
2017-12-03T10:09:45.236Z,-1.03
2017-12-03T10:10:48.253Z,-0.89
2017-12-03T10:11:51.255Z,-1.06
2017-12-03T10:12:54.274Z,-1.04
2017-12-03T10:13:57.567Z,-1.09
2017-12-03T10:15:00.501Z,-1.15
2017-12-03T10:16:03.583Z,-1.13
2017-12-03T10:17:06.559Z,-0.98
2017-12-03T10:18:09.578Z,-1.10
2017-12-03T10:19:12.516Z,-1.13
2017-12-03T10:20:15.791Z,-1.14
2017-12-03T10:21:18.791Z,-1.09
2017-12-03T10:22:21.817Z,-1.01
2017-12-03T10:23:24.800Z,-1.09
2017-12-03T10:24:27.783Z,-1.07
2017-12-03T10:25:30.769Z,-0.91
2017-12-03T10:26:33.747Z,-0.96
2017-12-03T10:27:36.733Z,-1.12
2017-12-03T10:28:39.910Z,-1.07
2017-12-03T10:29:43.076Z,-1.06
2017-12-03T10:30:46.146Z,-1.06
2017-12-03T10:31:49.647Z,-1.01
2017-12-03T10:32:52.705Z,-1.07
2017-12-03T10:33:55.683Z,-1.16
2017-12-03T10:34:58.599Z,-1.01
2017-12-03T10:36:01.760Z,-1.08
2017-12-03T10:37:04.780Z,-1.12
2017-12-03T10:38:08.035Z,-1.06
2017-12-03T10:39:11.014Z,-1.09
2017-12-03T10:40:13.977Z,-0.92
2017-12-03T10:41:17.097Z,-0.95
2017-12-03T10:42:20.090Z,-0.98
2017-12-03T10:43:23.037Z,-0.99
2017-12-03T10:44:26.296Z,-0.87
2017-12-03T10:45:29.321Z,-0.91
2017-12-03T10:46:32.358Z,-1.00
2017-12-03T10:47:35.366Z,-0.98
2017-12-03T10:48:38.301Z,-0.71
2017-12-03T10:49:41.345Z,-0.61
2017-12-03T10:50:44.318Z,-0.82
2017-12-03T10:51:47.309Z,-0.98
2017-12-03T10:52:50.310Z,-0.91
2017-12-03T10:53:53.261Z,-0.80
2017-12-03T10:54:56.268Z,-0.84
2017-12-03T10:55:59.601Z,-0.76
2017-12-03T10:57:02.653Z,-0.67
2017-12-03T10:58:05.643Z,-0.90
2017-12-03T10:59:08.630Z,-0.97
2017-12-03T11:00:11.934Z,-0.75
2017-12-03T11:01:14.978Z,-0.60
2017-12-03T11:02:18.392Z,-1.03
2017-12-03T11:03:21.510Z,-0.92
2017-12-03T11:04:24.505Z,-0.96
2017-12-03T11:05:27.572Z,-0.91
2017-12-03T11:06:30.459Z,-0.87
2017-12-03T11:07:33.437Z,-0.97
2017-12-03T11:08:36.814Z,-0.92
2017-12-03T11:09:39.795Z,-0.79
2017-12-03T11:10:42.830Z,-0.62
2017-12-03T11:11:45.833Z,-0.73
2017-12-03T11:12:48.830Z,-0.87
2017-12-03T11:13:51.769Z,-0.75
2017-12-03T11:14:55.001Z,-0.76
2017-12-03T11:15:57.923Z,-0.62
2017-12-03T11:17:01.776Z,-0.80
2017-12-03T11:18:04.816Z,-0.94
2017-12-03T11:19:07.782Z,-1.00
2017-12-03T11:20:10.760Z,-0.84
2017-12-03T11:21:14.030Z,-0.67
2017-12-03T11:22:17.036Z,-0.73
2017-12-03T11:23:20.015Z,-0.69
2017-12-03T11:24:22.991Z,-0.88
2017-12-03T11:25:26.006Z,-0.91
2017-12-03T11:26:28.978Z,-0.88
2017-12-03T11:27:32.271Z,-0.88
2017-12-03T11:28:35.338Z,-0.88
2017-12-03T11:29:38.519Z,-0.81
2017-12-03T11:30:41.524Z,-0.78
2017-12-03T11:31:44.580Z,-0.99
2017-12-03T11:32:47.618Z,-0.73
2017-12-03T11:33:50.988Z,-0.95
2017-12-03T11:34:54.073Z,-0.98
2017-12-03T11:35:57.134Z,-1.03
2017-12-03T11:37:00.164Z,-0.93
2017-12-03T11:38:03.093Z,-1.06
2017-12-03T11:39:06.067Z,-1.01
2017-12-03T11:40:09.376Z,-0.92
2017-12-03T11:41:12.343Z,-0.81
2017-12-03T11:42:15.273Z,-1.00
2017-12-03T11:43:18.354Z,-0.92
2017-12-03T11:44:21.287Z,-0.95
2017-12-03T11:45:24.176Z,-0.90
2017-12-03T11:46:27.360Z,-0.84
2017-12-03T11:47:30.279Z,-0.83
2017-12-03T11:48:33.255Z,-0.91
2017-12-03T11:49:36.216Z,-0.93
2017-12-03T11:50:39.227Z,-0.96
2017-12-03T11:51:42.248Z,-0.72
2017-12-03T11:52:45.518Z,-0.78
2017-12-03T11:53:48.579Z,-0.81
2017-12-03T11:54:51.595Z,-0.90
2017-12-03T11:55:54.555Z,-0.97
2017-12-03T11:56:57.558Z,-0.99
2017-12-03T11:58:00.539Z,-1.08
2017-12-03T11:59:03.806Z,-1.07
2017-12-03T12:00:06.806Z,-0.95
2017-12-03T12:01:09.774Z,-0.91
2017-12-03T12:02:12.733Z,-0.93
2017-12-03T12:03:15.691Z,-0.82
2017-12-03T12:04:18.658Z,-1.00
2017-12-03T12:05:21.840Z,-0.83
2017-12-03T12:06:24.790Z,-0.91
2017-12-03T12:07:27.817Z,-0.94
2017-12-03T12:08:30.781Z,-1.02
2017-12-03T12:09:33.750Z,-0.83
2017-12-03T12:10:36.779Z,-0.79
2017-12-03T12:11:40.042Z,-0.97
2017-12-03T12:12:42.959Z,-0.82
2017-12-03T12:13:45.820Z,-0.95
2017-12-03T12:14:48.705Z,-0.97
2017-12-03T12:15:51.730Z,-0.89
2017-12-03T12:16:54.604Z,-0.74
2017-12-03T12:17:57.901Z,-0.78
2017-12-03T12:19:00.893Z,-0.79
2017-12-03T12:20:03.994Z,-0.83
2017-12-03T12:21:06.977Z,-0.77
2017-12-03T12:22:10.012Z,-0.64
2017-12-03T12:23:12.972Z,-0.62
2017-12-03T12:24:16.309Z,-0.70
2017-12-03T12:25:19.390Z,-0.76
2017-12-03T12:26:22.391Z,-0.85
2017-12-03T12:27:25.452Z,-0.80
2017-12-03T12:28:28.388Z,-0.67
2017-12-03T12:29:31.438Z,-0.72
2017-12-03T12:30:34.658Z,-0.78
2017-12-03T12:31:37.782Z,-0.65
2017-12-03T12:32:40.728Z,-0.55
2017-12-03T12:33:43.765Z,-0.65
2017-12-03T12:34:46.976Z,-0.77
2017-12-03T12:35:50.167Z,-0.70
2017-12-03T12:36:53.502Z,-0.81
2017-12-03T12:37:56.772Z,-0.61
2017-12-03T12:38:59.699Z,-0.72
2017-12-03T12:40:02.883Z,-0.74
2017-12-03T12:41:05.810Z,-0.69
2017-12-03T12:42:08.895Z,-0.73
2017-12-03T12:43:12.208Z,-0.81
2017-12-03T12:44:15.250Z,-0.59
2017-12-03T12:45:18.208Z,-0.58
2017-12-03T12:46:21.191Z,-0.55
2017-12-03T12:47:24.349Z,-0.73
2017-12-03T12:48:27.395Z,-0.73
2017-12-03T12:49:30.691Z,-0.76
2017-12-03T12:50:33.913Z,-0.71
2017-12-03T12:51:37.040Z,-0.69
2017-12-03T12:52:40.060Z,-0.69
2017-12-03T12:53:43.061Z,-0.74
2017-12-03T12:54:46.133Z,-0.65
2017-12-03T12:55:49.579Z,-0.42
2017-12-03T12:56:52.554Z,-0.80
2017-12-03T12:57:55.590Z,-0.80
2017-12-03T12:58:58.485Z,-0.67
2017-12-03T13:00:01.386Z,-0.60
2017-12-03T13:01:04.313Z,-0.65
2017-12-03T13:02:07.687Z,-0.68
2017-12-03T13:03:10.671Z,-0.72
2017-12-03T13:04:14.941Z,-0.50
2017-12-03T13:05:18.205Z,-0.55
2017-12-03T13:06:21.783Z,-0.76
2017-12-03T13:07:24.788Z,-0.74
2017-12-03T13:08:27.907Z,-0.72
2017-12-03T13:09:30.839Z,-0.75
2017-12-03T13:10:33.931Z,-0.52
2017-12-03T13:11:36.934Z,-0.63
2017-12-03T13:12:39.946Z,-0.55
2017-12-03T13:13:43.293Z,-0.54
2017-12-03T13:14:46.185Z,-0.37
2017-12-03T13:15:49.224Z,-0.45
2017-12-03T13:16:52.227Z,-0.62
2017-12-03T13:17:55.174Z,-0.34
2017-12-03T13:18:58.084Z,-0.20
2017-12-03T13:20:01.404Z,-0.58
2017-12-03T13:21:04.415Z,-0.53
2017-12-03T13:22:07.413Z,-0.69
2017-12-03T13:23:10.481Z,-0.69
2017-12-03T13:24:13.421Z,-0.62
2017-12-03T13:25:16.410Z,-0.49
2017-12-03T13:26:19.369Z,-0.48
2017-12-03T13:27:22.329Z,-0.63
2017-12-03T13:28:25.272Z,-0.71
2017-12-03T13:29:28.587Z,-0.68
2017-12-03T13:30:31.609Z,-0.59
2017-12-03T13:31:34.882Z,-0.42